createdAt,value
2022-10-19T00:01:48.502Z,102848.41
2022-10-19T00:04:17.941Z,102844.75
2022-10-19T00:06:48.023Z,102844.31
2022-10-19T00:09:20.867Z,102843.84
2022-10-19T00:11:52.354Z,102848.22
2022-10-19T00:14:24.999Z,102842.91
2022-10-19T00:16:56.324Z,102832.41
2022-10-19T00:19:28.399Z,102837.72
2022-10-19T00:21:58.239Z,102836.06
2022-10-19T00:24:27.656Z,102831.19
2022-10-19T00:26:56.914Z,102828.38
2022-10-19T00:29:26.269Z,102823.22
2022-10-19T00:31:55.699Z,102820.78
2022-10-19T00:34:24.958Z,102811.88
2022-10-19T00:36:54.219Z,102828.06
2022-10-19T00:39:23.511Z,102823.66
2022-10-19T00:41:52.873Z,102823.66
2022-10-19T00:44:22.050Z,102820.06
2022-10-19T00:46:53.182Z,102826.16
2022-10-19T00:49:28.441Z,102825.38
2022-10-19T00:52:00.973Z,102827.47
2022-10-19T00:54:30.524Z,102829.09
2022-10-19T00:57:01.156Z,102832.34
2022-10-19T00:59:31.858Z,102835.59
2022-10-19T01:02:02.239Z,102825.16
2022-10-19T01:04:33.450Z,102833.22
2022-10-19T01:07:04.672Z,102823.59
2022-10-19T01:09:33.975Z,102828.88
2022-10-19T01:12:29.456Z,102830.88
2022-10-19T01:15:34.220Z,102825.63
2022-10-19T01:18:21.024Z,102827.16
2022-10-19T01:21:21.280Z,102831.53
2022-10-19T01:24:20.678Z,102829.91
2022-10-19T01:27:22.447Z,102829.84
2022-10-19T01:30:18.978Z,102820.53
2022-10-19T01:33:07.110Z,102820.91
2022-10-19T01:35:47.906Z,102809.59
2022-10-19T01:38:40.771Z,102806.31
2022-10-19T01:41:19.318Z,102801.06
2022-10-19T01:44:02.392Z,102805.44
2022-10-19T01:46:42.070Z,102808.69
2022-10-19T01:49:27.967Z,102801.91
2022-10-19T01:52:02.040Z,102803.06
2022-10-19T01:54:35.808Z,102802.19
2022-10-19T01:57:08.739Z,102794.13
2022-10-19T01:59:40.138Z,102790.94
2022-10-19T02:02:12.998Z,102794.94
2022-10-19T02:04:43.675Z,102792.00
2022-10-19T02:07:14.487Z,102793.91
2022-10-19T02:09:43.903Z,102794.69
2022-10-19T02:12:14.968Z,102795.41
2022-10-19T02:14:48.760Z,102785.66
2022-10-19T02:17:22.442Z,102785.28
2022-10-19T02:19:51.746Z,102781.66
2022-10-19T02:22:21.080Z,102782.53
2022-10-19T02:24:50.373Z,102781.66
2022-10-19T02:27:20.151Z,102785.72
2022-10-19T02:29:49.659Z,102783.38
2022-10-19T02:32:19.200Z,102776.03
2022-10-19T02:34:48.772Z,102785.09
2022-10-19T02:37:20.932Z,102784.44
2022-10-19T02:39:52.797Z,102775.47
2022-10-19T02:42:31.869Z,102772.16
2022-10-19T02:45:12.247Z,102774.44
2022-10-19T02:47:56.723Z,102767.91
2022-10-19T02:50:26.297Z,102762.22
2022-10-19T02:52:55.638Z,102758.16
2022-10-19T02:55:24.952Z,102758.44
2022-10-19T02:57:54.774Z,102753.13
2022-10-19T03:00:24.070Z,102745.78
2022-10-19T03:02:54.060Z,102754.16
2022-10-19T03:05:23.360Z,102743.22
2022-10-19T03:07:52.631Z,102748.81
2022-10-19T03:10:21.947Z,102749.56
2022-10-19T03:12:51.286Z,102745.50
2022-10-19T03:15:24.781Z,102750.28
2022-10-19T03:17:56.332Z,102759.88
2022-10-19T03:20:25.719Z,102752.97
2022-10-19T03:22:54.967Z,102766.22
2022-10-19T03:25:24.202Z,102768.59
2022-10-19T03:27:55.815Z,102761.31
2022-10-19T03:30:25.142Z,102756.47
2022-10-19T03:32:54.489Z,102754.81
2022-10-19T03:35:23.806Z,102760.00
2022-10-19T03:37:53.123Z,102759.56
2022-10-19T03:40:22.375Z,102760.00
2022-10-19T03:42:51.631Z,102742.78
2022-10-19T03:45:20.976Z,102748.41
2022-10-19T03:47:54.270Z,102736.28
2022-10-19T03:50:23.902Z,102742.25
2022-10-19T03:52:53.353Z,102737.00
2022-10-19T03:55:22.825Z,102739.38
2022-10-19T03:57:52.109Z,102745.53
2022-10-19T04:00:21.475Z,102752.00
2022-10-19T04:02:50.987Z,102755.00
2022-10-19T04:05:20.220Z,102752.59
2022-10-19T04:07:49.578Z,102740.69
2022-10-19T04:10:18.886Z,102748.38
2022-10-19T04:12:53.019Z,102749.66
2022-10-19T04:15:23.275Z,102749.28
2022-10-19T04:17:52.538Z,102756.59
2022-10-19T04:20:21.780Z,102756.25
2022-10-19T04:22:51.047Z,102748.91
2022-10-19T04:25:20.461Z,102748.44
2022-10-19T04:27:49.724Z,102744.03
2022-10-19T04:30:19.237Z,102742.75
2022-10-19T04:32:48.515Z,102737.13
2022-10-19T04:35:17.886Z,102744.75
2022-10-19T04:37:47.238Z,102742.75
2022-10-19T04:40:16.519Z,102746.31
2022-10-19T04:42:45.852Z,102746.19
2022-10-19T04:45:15.135Z,102749.38
2022-10-19T04:47:44.404Z,102750.47
2022-10-19T04:50:13.696Z,102750.91
2022-10-19T04:52:42.979Z,102747.22
2022-10-19T04:55:12.396Z,102747.94
2022-10-19T04:57:41.715Z,102747.88
2022-10-19T05:00:11.691Z,102744.09
2022-10-19T05:02:45.838Z,102757.22
2022-10-19T05:05:18.502Z,102751.53
2022-10-19T05:07:47.768Z,102747.09
2022-10-19T05:10:17.042Z,102746.19
2022-10-19T05:12:46.447Z,102739.69
2022-10-19T05:15:15.739Z,102739.59
2022-10-19T05:17:45.004Z,102749.91
2022-10-19T05:20:14.494Z,102744.22
2022-10-19T05:22:43.799Z,102740.50
2022-10-19T05:25:13.095Z,102735.63
2022-10-19T05:27:42.431Z,102748.75
2022-10-19T05:30:14.322Z,102745.41
2022-10-19T05:32:43.570Z,102734.09
2022-10-19T05:35:12.842Z,102731.28
2022-10-19T05:37:42.226Z,102737.28
2022-10-19T05:40:12.507Z,102733.66
2022-10-19T05:42:41.759Z,102740.81
2022-10-19T05:45:11.392Z,102734.66
2022-10-19T05:47:40.663Z,102726.78
2022-10-19T05:50:10.337Z,102736.72
2022-10-19T05:52:39.626Z,102737.91
2022-10-19T05:55:09.523Z,102733.84
2022-10-19T05:57:39.283Z,102735.28
2022-10-19T06:00:08.906Z,102731.22
2022-10-19T06:02:40.985Z,102731.50
2022-10-19T06:05:10.596Z,102730.13
2022-10-19T06:07:39.824Z,102734.91
2022-10-19T06:10:10.300Z,102728.50
2022-10-19T06:12:40.462Z,102731.31
2022-10-19T06:15:10.323Z,102729.31
2022-10-19T06:17:39.651Z,102717.31
2022-10-19T06:20:09.357Z,102718.81
2022-10-19T06:22:38.646Z,102717.63
2022-10-19T06:25:08.333Z,102728.84
2022-10-19T06:27:37.947Z,102728.84
2022-10-19T06:30:08.143Z,102726.03
2022-10-19T06:32:37.444Z,102730.50
2022-10-19T06:35:06.872Z,102722.91
2022-10-19T06:37:36.442Z,102727.06
2022-10-19T06:40:07.318Z,102733.56
2022-10-19T06:42:39.007Z,102728.88
2022-10-19T06:45:13.041Z,102740.28
2022-10-19T06:47:42.468Z,102725.50
2022-10-19T06:50:12.039Z,102720.53
2022-10-19T06:52:41.448Z,102727.22
2022-10-19T06:55:11.123Z,102724.50
2022-10-19T06:57:40.445Z,102725.72
2022-10-19T07:00:10.494Z,102700.22
2022-10-19T07:02:39.823Z,102725.88
2022-10-19T07:05:10.240Z,102713.94
2022-10-19T07:07:39.582Z,102720.34
2022-10-19T07:10:09.253Z,102717.63
2022-10-19T07:12:38.547Z,102725.75
2022-10-19T07:15:08.442Z,102736.78
2022-10-19T07:17:37.747Z,102736.53
2022-10-19T07:20:07.431Z,102733.09
2022-10-19T07:22:36.708Z,102732.88
2022-10-19T07:25:06.272Z,102735.44
2022-10-19T07:27:40.572Z,102750.94
2022-10-19T07:30:10.528Z,102747.81
2022-10-19T07:32:44.399Z,102743.28
2022-10-19T07:35:16.174Z,102747.44
2022-10-19T07:37:45.512Z,102660.41
2022-10-19T07:40:15.596Z,102735.25
2022-10-19T07:42:44.832Z,102735.88
2022-10-19T07:45:14.174Z,102733.38
2022-10-19T07:47:43.491Z,102733.31
2022-10-19T07:50:12.850Z,102727.22
2022-10-19T07:52:42.401Z,102717.09
2022-10-19T07:55:12.312Z,102712.56
2022-10-19T07:57:43.646Z,102711.97
2022-10-19T08:00:14.947Z,102718.69
2022-10-19T08:02:57.802Z,102721.22
2022-10-19T08:05:37.931Z,102726.19
2022-10-19T08:08:07.633Z,102722.19
2022-10-19T08:10:36.896Z,102736.44
2022-10-19T08:13:06.194Z,102734.06
2022-10-19T08:15:35.455Z,102734.50
2022-10-19T08:18:04.775Z,102726.44
2022-10-19T08:20:34.053Z,102724.84
2022-10-19T08:23:03.347Z,102723.28
2022-10-19T08:25:32.654Z,102718.88
2022-10-19T08:28:01.990Z,102716.84
2022-10-19T08:30:31.368Z,102718.88
2022-10-19T08:33:00.619Z,102721.72
2022-10-19T08:35:30.095Z,102708.78
2022-10-19T08:38:02.671Z,102699.47
2022-10-19T08:40:33.347Z,102697.03
2022-10-19T08:43:15.828Z,102705.53
2022-10-19T08:45:53.879Z,102698.22
2022-10-19T08:48:29.802Z,102694.59
2022-10-19T08:51:00.871Z,102700.66
2022-10-19T08:53:40.208Z,102703.88
2022-10-19T08:56:49.778Z,102701.38
2022-10-19T08:59:17.815Z,102694.44
2022-10-19T09:02:07.576Z,102698.50
2022-10-19T09:04:44.478Z,102680.22
2022-10-19T09:07:37.526Z,102697.59
2022-10-19T09:10:21.319Z,102686.25
2022-10-19T09:13:00.467Z,102682.97
2022-10-19T09:15:37.102Z,102673.59
2022-10-19T09:18:06.472Z,102671.13
2022-10-19T09:20:45.715Z,102678.81
2022-10-19T09:23:44.225Z,102661.25
2022-10-19T09:26:19.958Z,102663.47
2022-10-19T09:29:01.497Z,102656.91
2022-10-19T09:31:39.643Z,102672.69
2022-10-19T09:34:19.909Z,102663.22
2022-10-19T09:37:00.483Z,102664.69
2022-10-19T09:39:32.345Z,102660.56
2022-10-19T09:42:07.959Z,102664.50
2022-10-19T09:44:37.586Z,102653.69
2022-10-19T09:47:37.621Z,102663.31
2022-10-19T09:50:32.224Z,102647.78
2022-10-19T09:53:07.064Z,102653.31
2022-10-19T09:55:42.042Z,102657.59
2022-10-19T09:58:17.084Z,102654.50
2022-10-19T10:00:50.751Z,102648.13
2022-10-19T10:03:40.809Z,102645.50
2022-10-19T10:06:20.778Z,102644.53
2022-10-19T10:08:58.827Z,102654.06
2022-10-19T10:11:35.208Z,102652.13
2022-10-19T10:14:29.831Z,102649.97
2022-10-19T10:17:04.097Z,102653.72
2022-10-19T10:19:36.168Z,102664.59
2022-10-19T10:22:06.901Z,102653.50
2022-10-19T10:24:37.288Z,102654.03
2022-10-19T10:27:09.263Z,102646.03
2022-10-19T10:29:40.424Z,102647.09
2022-10-19T10:32:15.824Z,102645.63
2022-10-19T10:34:54.993Z,102643.78
2022-10-19T10:37:43.213Z,102630.56
2022-10-19T10:40:39.075Z,102633.03
2022-10-19T10:43:19.445Z,102630.72
2022-10-19T10:45:51.429Z,102638.00
2022-10-19T10:48:34.809Z,102631.88
2022-10-19T10:51:05.255Z,102612.47
2022-10-19T10:53:38.026Z,102609.94
2022-10-19T10:56:22.001Z,102618.31
2022-10-19T10:58:58.176Z,102611.19
2022-10-19T11:01:33.252Z,102587.06
2022-10-19T11:04:08.189Z,102586.84
2022-10-19T11:06:44.747Z,102585.41
2022-10-19T11:09:38.828Z,102590.47
2022-10-19T11:12:15.157Z,102585.38
2022-10-19T11:14:56.540Z,102578.69
2022-10-19T11:17:33.905Z,102579.56
2022-10-19T11:20:03.406Z,102561.72
2022-10-19T11:22:43.232Z,102584.13
2022-10-19T11:25:33.836Z,102571.63
2022-10-19T11:28:21.906Z,102579.69
2022-10-19T11:31:09.396Z,102577.72
2022-10-19T11:34:08.320Z,102563.81
2022-10-19T11:37:02.421Z,102558.88
2022-10-19T11:40:04.679Z,102551.44
2022-10-19T11:42:58.788Z,102547.09
2022-10-19T11:45:52.879Z,102531.09
2022-10-19T11:48:41.705Z,102537.00
2022-10-19T11:51:22.401Z,102537.56
2022-10-19T11:53:56.976Z,102529.00
2022-10-19T11:57:01.569Z,102521.25
2022-10-19T12:00:08.150Z,102519.63
2022-10-19T12:03:13.480Z,102517.94
2022-10-19T12:06:13.708Z,102512.28
2022-10-19T12:09:00.416Z,102506.22
2022-10-19T12:11:55.726Z,102501.63
2022-10-19T12:14:29.233Z,102490.94
2022-10-19T12:17:05.779Z,102487.06
2022-10-19T12:19:42.675Z,102489.91
2022-10-19T12:22:18.482Z,102491.34
2022-10-19T12:24:47.856Z,102489.97
2022-10-19T12:27:21.779Z,102483.16
2022-10-19T12:29:52.360Z,102486.19
2022-10-19T12:32:27.472Z,102466.50
2022-10-19T12:35:07.303Z,102463.78
2022-10-19T12:38:00.731Z,102463.53
2022-10-19T12:40:45.695Z,102455.50
2022-10-19T12:43:59.094Z,102446.41
2022-10-19T12:46:42.614Z,102443.16
2022-10-19T12:49:33.544Z,102443.31
2022-10-19T12:52:04.427Z,102432.72
2022-10-19T12:54:40.262Z,102435.25
2022-10-19T12:57:36.474Z,102443.00
2022-10-19T13:00:22.765Z,102428.84
2022-10-19T13:03:02.187Z,102412.75
2022-10-19T13:05:33.277Z,102407.84
2022-10-19T13:08:12.082Z,102390.03
2022-10-19T13:10:43.883Z,102398.34
2022-10-19T13:13:51.573Z,102400.47
2022-10-19T13:16:33.007Z,102393.69
2022-10-19T13:19:02.255Z,102390.47
2022-10-19T13:21:49.001Z,102386.00
2022-10-19T13:24:27.622Z,102375.03
2022-10-19T13:27:05.717Z,102384.91
2022-10-19T13:29:41.229Z,102372.78
2022-10-19T13:32:38.355Z,102374.31
2022-10-19T13:35:28.555Z,102354.97
2022-10-19T13:38:19.828Z,102352.19
2022-10-19T13:40:52.149Z,102349.41
2022-10-19T13:43:22.507Z,102352.78
2022-10-19T13:46:13.032Z,102354.13
2022-10-19T13:49:03.763Z,102348.94
2022-10-19T13:51:48.354Z,102350.13
2022-10-19T13:54:54.819Z,102346.59
2022-10-19T13:57:39.419Z,102335.34
2022-10-19T14:00:22.423Z,102328.19
2022-10-19T14:03:23.865Z,102327.16
2022-10-19T14:06:11.511Z,102334.59
2022-10-19T14:09:07.718Z,102329.38
2022-10-19T14:11:40.466Z,102324.25
2022-10-19T14:14:31.203Z,102323.94
2022-10-19T14:17:04.443Z,102324.06
2022-10-19T14:19:46.199Z,102306.19
2022-10-19T14:22:29.830Z,102325.78
2022-10-19T14:25:04.978Z,102324.56
2022-10-19T14:27:34.920Z,102318.50
2022-10-19T14:30:04.881Z,102320.97
2022-10-19T14:32:36.774Z,102306.31
2022-10-19T14:35:18.899Z,102309.53
2022-10-19T14:37:48.256Z,102300.56
2022-10-19T14:40:40.093Z,102301.31
2022-10-19T14:43:31.827Z,102303.28
2022-10-19T14:46:12.802Z,102299.72
2022-10-19T14:48:51.047Z,102296.88
2022-10-19T14:51:41.248Z,102292.41
2022-10-19T14:54:40.570Z,102290.69
2022-10-19T14:57:15.679Z,102290.69
2022-10-19T14:59:55.970Z,102272.06
2022-10-19T15:02:31.231Z,102283.38
2022-10-19T15:05:03.712Z,102278.50
2022-10-19T15:07:41.660Z,102277.22
2022-10-19T15:10:19.948Z,102280.31
2022-10-19T15:12:50.389Z,102268.56
2022-10-19T15:15:27.584Z,102268.44
2022-10-19T15:18:16.345Z,102267.56
2022-10-19T15:21:16.303Z,102257.81
2022-10-19T15:23:48.465Z,102270.78
2022-10-19T15:26:20.588Z,102269.81
2022-10-19T15:28:50.835Z,102254.88
2022-10-19T15:31:24.194Z,102259.03
2022-10-19T15:33:56.031Z,102257.88
2022-10-19T15:36:26.880Z,102265.34
2022-10-19T15:39:24.590Z,102255.69
2022-10-19T15:41:54.698Z,102240.50
2022-10-19T15:44:45.591Z,102245.09
2022-10-19T15:47:19.131Z,102248.78
2022-10-19T15:49:50.014Z,102243.34
2022-10-19T15:52:23.880Z,102241.44
2022-10-19T15:54:55.755Z,102232.31
2022-10-19T15:57:29.167Z,102224.34
2022-10-19T16:00:00.132Z,102205.94
2022-10-19T16:02:29.661Z,102218.13
2022-10-19T16:04:59.036Z,102212.19
2022-10-19T16:07:35.319Z,102198.19
2022-10-19T16:10:05.041Z,102196.66
2022-10-19T16:12:34.376Z,102201.56
2022-10-19T16:15:03.696Z,102189.56
2022-10-19T16:17:33.347Z,102191.25
2022-10-19T16:20:02.865Z,102193.38
2022-10-19T16:22:35.450Z,102193.47
2022-10-19T16:25:04.890Z,102189.09
2022-10-19T16:27:34.350Z,102174.47
2022-10-19T16:30:03.944Z,102177.91
2022-10-19T16:32:33.289Z,102184.00
2022-10-19T16:35:02.665Z,102181.66
2022-10-19T16:37:33.375Z,102177.66
2022-10-19T16:40:02.803Z,102170.03
2022-10-19T16:42:35.117Z,102168.88
2022-10-19T16:45:04.687Z,102164.00
2022-10-19T16:47:33.979Z,102166.06
2022-10-19T16:50:04.780Z,102171.38
2022-10-19T16:52:35.109Z,102158.09
2022-10-19T16:55:04.605Z,102155.72
2022-10-19T16:57:33.889Z,102147.72
2022-10-19T17:00:03.336Z,102151.72
2022-10-19T17:02:32.891Z,102154.66
2022-10-19T17:05:05.426Z,102153.44
2022-10-19T17:07:34.626Z,102160.00
2022-10-19T17:10:03.905Z,102153.94
2022-10-19T17:12:33.608Z,102147.88
2022-10-19T17:15:30.208Z,102143.06
2022-10-19T17:17:52.464Z,102142.22
2022-10-19T17:20:21.757Z,102135.84
2022-10-19T17:22:54.617Z,102133.41
2022-10-19T17:25:23.912Z,102129.88
2022-10-19T17:27:54.456Z,102130.69
2022-10-19T17:30:26.531Z,102126.25
2022-10-19T17:32:55.948Z,102121.38
2022-10-19T17:35:25.214Z,102115.78
2022-10-19T17:37:54.489Z,102121.06
2022-10-19T17:40:23.743Z,102124.34
2022-10-19T17:42:53.012Z,102129.16
2022-10-19T17:45:22.272Z,102124.75
2022-10-19T17:47:51.598Z,102120.72
2022-10-19T17:50:20.900Z,102121.56
2022-10-19T17:52:50.218Z,102123.16
2022-10-19T17:55:19.674Z,102121.25
2022-10-19T17:57:48.943Z,102120.81
2022-10-19T18:00:18.284Z,102120.84
2022-10-19T18:02:48.935Z,102114.84
2022-10-19T18:05:18.376Z,102114.41
2022-10-19T18:07:49.439Z,102113.66
2022-10-19T18:10:18.792Z,102120.13
2022-10-19T18:12:48.099Z,102115.69
2022-10-19T18:15:17.445Z,102115.28
2022-10-19T18:17:46.725Z,102123.38
2022-10-19T18:20:16.070Z,102120.59
2022-10-19T18:22:45.332Z,102119.75
2022-10-19T18:25:18.806Z,102122.19
2022-10-19T18:27:51.211Z,102121.00
2022-10-19T18:30:20.768Z,102115.00
2022-10-19T18:32:53.148Z,102115.34
2022-10-19T18:35:22.903Z,102120.66
2022-10-19T18:37:52.191Z,102119.03
2022-10-19T18:40:21.443Z,102132.41
2022-10-19T18:42:50.936Z,102113.00
2022-10-19T18:45:20.207Z,102105.31
2022-10-19T18:47:49.543Z,102100.09
2022-10-19T18:50:18.925Z,102095.28
2022-10-19T18:52:48.221Z,102099.38
2022-10-19T18:55:17.667Z,102099.38
2022-10-19T18:57:46.932Z,102100.97
2022-10-19T19:00:16.783Z,102089.69
2022-10-19T19:02:47.264Z,102080.81
2022-10-19T19:05:16.873Z,102086.88
2022-10-19T19:07:46.156Z,102077.63
2022-10-19T19:10:15.789Z,102075.22
2022-10-19T19:12:46.346Z,102067.53
2022-10-19T19:15:15.665Z,102055.84
2022-10-19T19:17:44.991Z,102054.22
2022-10-19T19:20:14.354Z,102056.25
2022-10-19T19:22:43.620Z,102054.31
2022-10-19T19:25:12.907Z,102048.63
2022-10-19T19:27:42.232Z,102054.28
2022-10-19T19:30:12.766Z,102053.47
2022-10-19T19:32:43.396Z,102049.88
2022-10-19T19:35:12.690Z,102043.78
2022-10-19T19:37:41.959Z,102022.06
2022-10-19T19:40:11.780Z,102026.50
2022-10-19T19:42:41.065Z,102025.31
2022-10-19T19:45:11.012Z,102022.88
2022-10-19T19:47:40.353Z,102019.66
2022-10-19T19:50:10.243Z,102008.03
2022-10-19T19:52:40.515Z,102010.03
2022-10-19T19:55:10.250Z,102019.31
2022-10-19T19:57:39.556Z,102008.44
2022-10-19T20:00:09.422Z,101994.78
2022-10-19T20:02:41.750Z,101994.75
2022-10-19T20:05:12.056Z,101988.75
2022-10-19T20:07:41.434Z,101988.34
2022-10-19T20:10:11.008Z,101991.56
2022-10-19T20:12:40.986Z,101986.34
2022-10-19T20:15:10.623Z,101990.81
2022-10-19T20:17:40.231Z,101996.06
2022-10-19T20:20:11.415Z,101990.84
2022-10-19T20:22:40.999Z,101988.44
2022-10-19T20:25:10.645Z,101985.22
2022-10-19T20:27:39.960Z,101966.63
2022-10-19T20:30:10.041Z,101972.34
2022-10-19T20:32:39.870Z,101974.75
2022-10-19T20:35:09.697Z,101950.53
2022-10-19T20:37:38.998Z,101963.06
2022-10-19T20:40:09.085Z,101952.19
2022-10-19T20:42:38.668Z,101946.53
2022-10-19T20:45:08.780Z,101938.47
2022-10-19T20:47:38.082Z,101915.13
2022-10-19T20:50:08.012Z,101930.41
2022-10-19T20:52:38.584Z,101937.69
2022-10-19T20:55:09.028Z,101925.66
2022-10-19T20:57:38.317Z,101928.84
2022-10-19T21:00:08.228Z,101932.50
2022-10-19T21:02:37.698Z,101931.28
2022-10-19T21:05:07.623Z,101925.25
2022-10-19T21:07:36.963Z,101920.78
2022-10-19T21:10:06.425Z,101924.84
2022-10-19T21:12:36.140Z,101925.63
2022-10-19T21:15:05.752Z,101929.69
2022-10-19T21:17:35.216Z,101926.03
2022-10-19T21:20:04.507Z,101929.66
2022-10-19T21:22:39.173Z,101938.16
2022-10-19T21:25:08.915Z,101921.63
2022-10-19T21:27:38.443Z,101925.25
2022-10-19T21:30:08.197Z,101924.06
2022-10-19T21:32:37.522Z,101914.41
2022-10-19T21:35:07.079Z,101921.66
2022-10-19T21:37:36.621Z,101913.22
2022-10-19T21:40:06.330Z,101895.50
2022-10-19T21:42:35.602Z,101894.69
2022-10-19T21:45:25.606Z,101888.63
2022-10-19T21:47:54.336Z,101904.78
2022-10-19T21:50:23.567Z,101895.91
2022-10-19T21:52:52.808Z,101873.00
2022-10-19T21:55:22.069Z,101893.50
2022-10-19T21:57:51.390Z,101892.28
2022-10-19T22:00:20.619Z,101884.66
2022-10-19T22:02:51.280Z,101886.25
2022-10-19T22:05:20.729Z,101889.06
2022-10-19T22:07:50.041Z,101876.56
2022-10-19T22:10:19.372Z,101886.66
2022-10-19T22:12:48.755Z,101878.22
2022-10-19T22:15:18.176Z,101860.06
2022-10-19T22:17:47.459Z,101872.97
2022-10-19T22:20:16.765Z,101859.69
2022-10-19T22:22:46.019Z,101864.53
2022-10-19T22:25:15.259Z,101869.75
2022-10-19T22:27:44.668Z,101856.47
2022-10-19T22:30:14.058Z,101854.84
2022-10-19T22:32:43.313Z,101844.78
2022-10-19T22:35:12.590Z,101808.53
2022-10-19T22:37:41.832Z,101828.25
2022-10-19T22:40:11.526Z,101819.81
2022-10-19T22:42:40.776Z,101827.88
2022-10-19T22:45:10.639Z,101815.78
2022-10-19T22:47:39.908Z,101827.47
2022-10-19T22:50:11.866Z,101823.84
2022-10-19T22:52:41.419Z,101814.59
2022-10-19T22:55:10.913Z,101808.53
2022-10-19T22:57:40.192Z,101796.84
2022-10-19T23:00:10.345Z,101795.25
2022-10-19T23:02:39.643Z,101790.84
2022-10-19T23:05:09.071Z,101780.78
2022-10-19T23:07:38.829Z,101778.38
2022-10-19T23:10:09.196Z,101793.66
2022-10-19T23:12:38.487Z,101800.09
2022-10-19T23:15:08.199Z,101784.81
2022-10-19T23:17:37.788Z,101769.50
2022-10-19T23:20:07.613Z,101768.69
2022-10-19T23:22:36.988Z,101762.25
2022-10-19T23:25:06.563Z,101763.03
2022-10-19T23:27:36.123Z,101769.50
2022-10-19T23:30:06.835Z,101775.16
2022-10-19T23:32:36.102Z,101775.97
2022-10-19T23:35:05.376Z,101769.09
2022-10-19T23:37:34.856Z,101766.28
2022-10-19T23:40:05.262Z,101764.31
2022-10-19T23:42:34.545Z,101759.88
2022-10-19T23:45:03.814Z,101754.63
2022-10-19T23:47:33.303Z,101753.44
2022-10-19T23:50:02.907Z,101753.44
2022-10-19T23:52:32.170Z,101743.38
2022-10-19T23:55:01.395Z,101734.94
2022-10-19T23:57:30.707Z,101730.91
2022-10-19T23:59:59.999Z,101734.16
